CYHU

Montréal / Saint-Hubert Airport

Montréal, Quebec, Canada
METAR CYHU 092113Z AUTO 24017G22KT 6SM -SN SCT022 SCT028 BKN034 OVC046 M01/M04 A3008 RMK SLP189
Observed Flight Rules
Dec-9 @ 21:13 UTC (26 minutes ago) Visual Flight Rules
Wind Visibility Clouds Conditions
240° at 17 knots
 Gusting to 22 knots
6 miles
  • Scattered at 2,200' AGL
  • Scattered at 2,800' AGL
  • Broken at 3,400' AGL
  • Overcast at 4,600' AGL
  • Light Snow
Temperatures Readings
Current -1°C / 30°F
Dewpoint -4°C / 25°F
Humidity 80%
Altimeter 30.08" Hg
Pressure 1018.9 hPa
Elevation 27
METAR CYHU 092113Z AUTO 24017G22KT 6SM -SN SCT022 SCT028 BKN034 OVC046 M01/M04 A3008 RMK SLP189
Observed Flight Rules
Dec-9 @ 21:13 UTC
(26 minutes ago)
VFR
Wind Visibility
240° at 17 knots
 Gusting to 22 knots
6 miles
Clouds
  • Scattered at 2,200' AGL
  • Scattered at 2,800' AGL
  • Broken at 3,400' AGL
  • Overcast at 4,600' AGL
Conditions
  • Light Snow
Temperature Dewpoint
-1°C / 30°F -4°C / 25°F
Humidity Altimeter Pressure
80% 30.08" Hg 1018.9 hPa